Weather at Independence State Airport

Public forecast

Using degrees Fahrenheit for public forecast. Weather courtesy of forecast.io.

Closest aviation weather report (METAR) to Independence State Airport

Closest report is Salem Municipal Airport/McNary Field, 8.7 nm (16.1 km) ENE. Retrieved 2021/05/13 14:56 UTC (1 hour ago):

KSLE 131456Z 01005KT 10SM CLR 14/08 A3017 RMK AO2 SLP215 T01440078 53009

Closest aviation forecast (TAF) to Independence State Airport

Closest forecast is Salem Municipal Airport/McNary Field, 8.7 nm (16.1 km) ENE. Retrieved 2021/05/13 12:42 UTC (3 hours ago):

TAF KSLE 131141Z 1312/1412 VRB03KT P6SM SCT250 FM131500 01005KT P6SM SCT250 FM132100 35008KT P6SM SCT250 FM140000 32009KT P6SM SCT250 FM140900 VRB04KT P6SM SCT200